Fesco Vladimir — 5BSL2 — position and weather

sailwx.info

Track history (hours):
 
Tides and Currents Weather Stations Pressure Air Temp Water Temp Dewpoint Dewpoint Depression Visibility Wind Speed Wind Dir Waves Ship Positions

Fesco Vladimir

Last reported at 2016-Dec-06 01:17 UTC. Time now 2016-Dec-06 12:11 UTC.
Position N 59°37' E 023°18'.

Length 184 m; draft 9 m.

Type: Ship (hazmat cat A). MMSI: 209777000.

Date/timePositionNaut miles runAvg speedWind from/ knotsBaromVisibWave heightAir tempDewpointWater temp
2016-Dec-06 01:17N 59°37' E 023°18'1115.1
2016-Dec-06 00:33N 59°40' E 023°39'8115.1
2016-Dec-05 19:12N 59°59' E 026°16'1014.8
2016-Dec-05 18:33N 60°01' E 026°34'1414.0
2016-Dec-05 17:33N 59°59' E 027°02'1515.0
2016-Dec-05 16:34N 60°07' E 027°28'1413.9
2016-Dec-05 15:31N 60°11' E 027°56'1313.7
2016-Dec-05 14:34N 60°06' E 028°21'1313.5
2016-Dec-05 13:34N 60°03' E 028°47'2512.6
2016-Dec-05 11:33N 60°00' E 029°37'5 4.7
2016-Dec-05 10:33N 59°56' E 029°42'0 0.0
2016-Dec-05 09:33N 59°56' E 029°42'0 0.0
2016-Dec-05 08:33N 59°56' E 029°42'0 0.0
2016-Dec-05 03:33N 59°56' E 029°42'0 0.0
2016-Dec-05 02:33N 59°56' E 029°42'0 0.0
2016-Dec-04 21:23N 59°56' E 029°42'0 0.0
2016-Dec-04 20:29N 59°56' E 029°42'0 0.5
2016-Dec-04 19:34N 59°56' E 029°42'3 2.9
2016-Dec-04 18:33N 59°59' E 029°45'1010.2
2016-Dec-04 17:33N 59°55' E 030°04'5 4.3
2016-Dec-04 16:26N 59°52' E 030°12'0 0.0
2016-Dec-04 15:32N 59°52' E 030°12'0 0.0
2016-Dec-04 14:32N 59°52' E 030°12'0 0.0
2016-Dec-04 13:32N 59°52' E 030°12'0 0.0
2016-Dec-04 12:32N 59°52' E 030°12'0 0.0
2016-Dec-04 11:32N 59°52' E 030°12'0 0.0
2016-Dec-04 10:32N 59°52' E 030°12'0 0.0
2016-Dec-04 09:32N 59°52' E 030°12'0 0.0
2016-Dec-04 08:32N 59°52' E 030°12'0 0.0
2016-Dec-04 07:32N 59°52' E 030°12'0 0.0
2016-Dec-04 06:32N 59°52' E 030°12'0 0.0
2016-Dec-04 05:32N 59°52' E 030°12'0 0.0
2016-Dec-04 04:29N 59°52' E 030°12'1 0.9
2016-Dec-04 03:33N 59°53' E 030°11'0 0.0
2016-Dec-04 02:32N 59°53' E 030°11'0 0.0
2016-Dec-04 01:32N 59°53' E 030°11'0 0.0
2016-Dec-04 00:32N 59°53' E 030°11'0 0.0
2016-Dec-03 23:33N 59°53' E 030°11'0 0.0
2016-Dec-03 22:34N 59°53' E 030°11'0 0.0
2016-Dec-03 21:33N 59°53' E 030°11'0 0.0
2016-Dec-03 20:33N 59°53' E 030°11'0 0.0
2016-Dec-03 19:34N 59°53' E 030°11'0 0.0
2016-Dec-03 18:34N 59°53' E 030°11'0 0.0
2016-Dec-03 17:34N 59°53' E 030°11'0 0.0
2016-Dec-03 16:34N 59°53' E 030°11'7 7.1
2016-Dec-03 15:33N 59°56' E 029°58'1111.2
2016-Dec-03 14:34N 60°00' E 029°38'1211.6
2016-Dec-03 13:33N 60°02' E 029°15'1616.4
2016-Dec-03 12:33N 60°01' E 028°42'1413.7
2016-Dec-03 11:33N 59°50' E 028°26'9 9.4
2016-Dec-03 10:33N 59°40' E 028°24'0 0.0
2016-Dec-03 09:31N 59°40' E 028°24'0 0.0
2016-Dec-03 08:33N 59°40' E 028°24'0 0.0
2016-Dec-03 07:33N 59°40' E 028°24'0 0.0
2016-Dec-03 06:33N 59°40' E 028°24'0 0.0
2016-Dec-03 05:21N 59°40' E 028°24'0 0.0
2016-Dec-03 04:33N 59°40' E 028°24'0 0.0
2016-Dec-03 03:33N 59°40' E 028°24'0 0.0
2016-Dec-03 02:24N 59°40' E 028°24'0 0.0
2016-Dec-03 01:27N 59°40' E 028°24'0 0.0
2016-Dec-03 00:27N 59°40' E 028°24'0 0.0
2016-Dec-02 23:27N 59°40' E 028°24'0 0.0
2016-Dec-02 22:27N 59°40' E 028°24'0 0.0
2016-Dec-02 21:30N 59°40' E 028°24'0 0.2
2016-Dec-02 20:33N 59°41' E 028°24'9 8.4
2016-Dec-02 19:32N 59°49' E 028°25'1211.8
2016-Dec-02 18:33N 59°60' E 028°35'1111.0
2016-Dec-02 17:33N 60°06' E 028°17'1212.5
2016-Dec-02 16:33N 60°10' E 027°53'1212.5
2016-Dec-02 15:33N 60°06' E 027°30'1312.8
2016-Dec-02 14:33N 59°59' E 027°08'1312.6
2016-Dec-02 13:34N 59°59' E 026°43'1414.0
2016-Dec-02 12:33N 59°56' E 026°16'6615.5
2016-Dec-02 08:21N 59°40' E 024°09'1215.4
2016-Dec-02 07:33N 59°36' E 023°47'1615.4
2016-Dec-02 06:32N 59°31' E 023°17'34016.2
2016-Dec-01 09:32N 55°40' E 015°33'1717.2
2016-Dec-01 08:33N 55°31' E 015°07'1717.0
2016-Dec-01 07:34N 55°23' E 014°41'1716.9
2016-Dec-01 06:34N 55°10' E 014°22'1716.8
2016-Dec-01 05:33N 54°59' E 014°01'1817.7
2016-Dec-01 04:33N 54°53' E 013°31'3817.4
2016-Dec-01 02:21N 54°40' E 012°29'1316.6
2016-Dec-01 01:33N 54°29' E 012°15'1616.2
2016-Dec-01 00:33N 54°24' E 011°49'1818.3
2016-Nov-30 23:34N 54°32' E 011°21'1818.2
2016-Nov-30 22:34N 54°41' E 010°53'1616.1
2016-Nov-30 21:34N 54°57' E 010°57'1615.8
2016-Nov-30 20:34N 55°12' E 011°06'4615.2
2016-Nov-30 17:32N 55°58' E 011°00'1715.7
2016-Nov-30 16:27N 56°12' E 011°18'5614.5
2016-Nov-30 12:33N 57°07' E 011°38'1716.6
2016-Nov-30 11:33N 57°23' E 011°27'1616.1
2016-Nov-30 10:33N 57°35' E 011°08'1616.0
2016-Nov-30 09:33N 57°46' E 010°46'1717.1
2016-Nov-30 08:33N 57°47' E 010°14'17814.8
2016-Nov-29 20:33N 55°31' E 006°46'1414.2
2016-Nov-29 19:33N 55°17' E 006°43'1514.9
2016-Nov-29 18:33N 55°02' E 006°47'1515.1
2016-Nov-29 17:33N 54°47' E 006°53'1815.6
2016-Nov-29 16:24N 54°32' E 007°10'4716.5
2016-Nov-29 13:33N 54°01' E 008°09'1413.7
2016-Nov-29 12:34N 53°58' E 008°32'1312.7
2016-Nov-29 11:33N 53°50' E 008°49'1212.3
2016-Nov-29 10:34N 53°53' E 009°09'10 9.7
2016-Nov-29 09:33N 53°47' E 009°23'1514.8
2016-Nov-29 08:33N 53°35' E 009°37'1110.6
2016-Nov-29 07:33N 53°32' E 009°54'0 0.2
2016-Nov-29 06:33N 53°32' E 009°55'0 0.0
2016-Nov-29 05:33N 53°32' E 009°55'0 0.0
2016-Nov-29 04:33N 53°32' E 009°55'0 0.0
2016-Nov-29 03:33N 53°32' E 009°55'0 0.0
2016-Nov-29 02:33N 53°32' E 009°55'0 0.0
2016-Nov-29 01:33N 53°32' E 009°55'0 0.0
2016-Nov-29 00:33N 53°32' E 009°55'0 0.0
2016-Nov-28 23:33N 53°32' E 009°55'0 0.0
2016-Nov-28 22:33N 53°32' E 009°55'0 0.0
2016-Nov-28 21:33N 53°32' E 009°55'0 0.0
2016-Nov-28 20:33N 53°32' E 009°55'0 0.0
2016-Nov-28 19:33N 53°32' E 009°55'0 0.0
2016-Nov-28 18:33N 53°32' E 009°55'0 0.0
2016-Nov-28 17:33N 53°32' E 009°55'0 0.0
2016-Nov-28 16:33N 53°32' E 009°55'0 0.0
2016-Nov-28 15:33N 53°32' E 009°55'0 0.0
2016-Nov-28 14:33N 53°32' E 009°55'0 0.0
2016-Nov-28 13:30N 53°32' E 009°55'5 5.6
2016-Nov-28 12:33N 53°34' E 009°46'1110.8
2016-Nov-28 11:33N 53°40' E 009°31'1413.8
2016-Nov-28 10:34N 53°51' E 009°19'1212.0
2016-Nov-28 09:33N 53°51' E 008°58'1615.8
2016-Nov-28 08:34N 53°58' E 008°34'1414.1
2016-Nov-28 07:33N 53°60' E 008°10'4 2.9
2016-Nov-28 06:06N 54°03' E 008°06'0 0.0
2016-Nov-28 05:24N 54°03' E 008°06'0 0.0
2016-Nov-28 04:33N 54°03' E 008°06'0 0.0
2016-Nov-28 02:27N 54°03' E 008°06'0 0.0
2016-Nov-28 01:27N 54°03' E 008°06'0 0.0
2016-Nov-27 23:15N 54°03' E 008°06'0 0.0
2016-Nov-27 22:24N 54°03' E 008°06'0 0.1
2016-Nov-27 21:27N 54°03' E 008°06'0 0.0
2016-Nov-27 18:12N 54°03' E 008°06'0 0.1
2016-Nov-27 17:30N 54°03' E 008°06'0 0.0
2016-Nov-27 16:09N 54°03' E 008°06'0 0.1
2016-Nov-27 15:27N 54°03' E 008°06'0 0.0
2016-Nov-27 14:33N 54°03' E 008°06'0 0.0
2016-Nov-27 13:15N 54°03' E 008°06'0 0.0
2016-Nov-27 12:33N 54°03' E 008°06'0 0.1
2016-Nov-27 11:30N 54°03' E 008°06'0 0.1
2016-Nov-27 10:30N 54°03' E 008°06'0 0.0
2016-Nov-27 09:33N 54°03' E 008°06'0 0.0
2016-Nov-27 08:30N 54°03' E 008°06'0 0.0
2016-Nov-27 07:30N 54°03' E 008°06'0 0.0
2016-Nov-27 06:21N 54°03' E 008°06'0 0.1
2016-Nov-27 05:09N 54°03' E 008°06'0 0.0
2016-Nov-27 04:33N 54°03' E 008°06'0 0.0
2016-Nov-27 03:30N 54°03' E 008°06'0 0.0
2016-Nov-27 02:33N 54°03' E 008°06'0 0.0
2016-Nov-27 01:27N 54°03' E 008°06'0 0.0
2016-Nov-27 00:33N 54°03' E 008°06'0 0.0
2016-Nov-26 23:32N 54°03' E 008°06'0 0.0
2016-Nov-26 22:32N 54°03' E 008°06'0 0.1
2016-Nov-26 21:32N 54°03' E 008°06'0 0.0
2016-Nov-26 17:05N 54°03' E 008°06'0 0.0
2016-Nov-26 16:29N 54°03' E 008°06'0 0.0
2016-Nov-26 15:33N 54°03' E 008°06'0 0.0
2016-Nov-26 14:18N 54°03' E 008°06'0 0.1
2016-Nov-26 13:33N 54°03' E 008°06'0 0.1
2016-Nov-26 12:33N 54°03' E 008°06'0 0.1
2016-Nov-26 11:30N 54°03' E 008°06'0 0.1
2016-Nov-26 10:33N 54°03' E 008°06'0 0.0
2016-Nov-26 09:24N 54°03' E 008°06'0 0.0
2016-Nov-26 08:30N 54°03' E 008°06'0 0.0
2016-Nov-26 07:15N 54°03' E 008°06'0 0.0
2016-Nov-26 06:33N 54°03' E 008°06'0 0.0
2016-Nov-26 04:24N 54°03' E 008°06'0 0.1
2016-Nov-26 03:27N 54°03' E 008°06'0 0.1
2016-Nov-26 02:26N 54°03' E 008°06'0 0.0
2016-Nov-26 01:29N 54°03' E 008°06'  
Track history (hours):
 
Tides and Currents Weather Stations Pressure Air Temp Water Temp Dewpoint Dewpoint Depression Visibility Wind Speed Wind Dir Waves Ship Positions

Fesco Vladimir

Last reported at 2016-Dec-06 01:17 UTC. Time now 2016-Dec-06 12:11 UTC.
Position N 59°37' E 023°18'.

Length 184 m; draft 9 m.

Type: Ship (hazmat cat A). MMSI: 209777000.

Date/timePositionNaut miles runAvg speedWind from/ knotsBaromVisibWave heightAir tempDewpointWater temp
2016-Dec-06 01:17N 59°37' E 023°18'1115.1
2016-Dec-06 00:33N 59°40' E 023°39'8115.1
2016-Dec-05 19:12N 59°59' E 026°16'1014.8
2016-Dec-05 18:33N 60°01' E 026°34'1414.0
2016-Dec-05 17:33N 59°59' E 027°02'1515.0
2016-Dec-05 16:34N 60°07' E 027°28'1413.9
2016-Dec-05 15:31N 60°11' E 027°56'1313.7
2016-Dec-05 14:34N 60°06' E 028°21'1313.5
2016-Dec-05 13:34N 60°03' E 028°47'2512.6
2016-Dec-05 11:33N 60°00' E 029°37'5 4.7
2016-Dec-05 10:33N 59°56' E 029°42'0 0.0
2016-Dec-05 09:33N 59°56' E 029°42'0 0.0
2016-Dec-05 08:33N 59°56' E 029°42'0 0.0
2016-Dec-05 03:33N 59°56' E 029°42'0 0.0
2016-Dec-05 02:33N 59°56' E 029°42'0 0.0
2016-Dec-04 21:23N 59°56' E 029°42'0 0.0
2016-Dec-04 20:29N 59°56' E 029°42'0 0.5
2016-Dec-04 19:34N 59°56' E 029°42'3 2.9
2016-Dec-04 18:33N 59°59' E 029°45'1010.2
2016-Dec-04 17:33N 59°55' E 030°04'5 4.3
2016-Dec-04 16:26N 59°52' E 030°12'0 0.0
2016-Dec-04 15:32N 59°52' E 030°12'0 0.0
2016-Dec-04 14:32N 59°52' E 030°12'0 0.0
2016-Dec-04 13:32N 59°52' E 030°12'0 0.0
2016-Dec-04 12:32N 59°52' E 030°12'0 0.0
2016-Dec-04 11:32N 59°52' E 030°12'0 0.0
2016-Dec-04 10:32N 59°52' E 030°12'0 0.0
2016-Dec-04 09:32N 59°52' E 030°12'0 0.0
2016-Dec-04 08:32N 59°52' E 030°12'0 0.0
2016-Dec-04 07:32N 59°52' E 030°12'0 0.0
2016-Dec-04 06:32N 59°52' E 030°12'0 0.0
2016-Dec-04 05:32N 59°52' E 030°12'0 0.0
2016-Dec-04 04:29N 59°52' E 030°12'1 0.9
2016-Dec-04 03:33N 59°53' E 030°11'0 0.0
2016-Dec-04 02:32N 59°53' E 030°11'0 0.0
2016-Dec-04 01:32N 59°53' E 030°11'0 0.0
2016-Dec-04 00:32N 59°53' E 030°11'0 0.0
2016-Dec-03 23:33N 59°53' E 030°11'0 0.0
2016-Dec-03 22:34N 59°53' E 030°11'0 0.0
2016-Dec-03 21:33N 59°53' E 030°11'0 0.0
2016-Dec-03 20:33N 59°53' E 030°11'0 0.0
2016-Dec-03 19:34N 59°53' E 030°11'0 0.0
2016-Dec-03 18:34N 59°53' E 030°11'0 0.0
2016-Dec-03 17:34N 59°53' E 030°11'0 0.0
2016-Dec-03 16:34N 59°53' E 030°11'7 7.1
2016-Dec-03 15:33N 59°56' E 029°58'1111.2
2016-Dec-03 14:34N 60°00' E 029°38'1211.6
2016-Dec-03 13:33N 60°02' E 029°15'1616.4
2016-Dec-03 12:33N 60°01' E 028°42'1413.7
2016-Dec-03 11:33N 59°50' E 028°26'9 9.4
2016-Dec-03 10:33N 59°40' E 028°24'0 0.0
2016-Dec-03 09:31N 59°40' E 028°24'0 0.0
2016-Dec-03 08:33N 59°40' E 028°24'0 0.0
2016-Dec-03 07:33N 59°40' E 028°24'0 0.0
2016-Dec-03 06:33N 59°40' E 028°24'0 0.0
2016-Dec-03 05:21N 59°40' E 028°24'0 0.0
2016-Dec-03 04:33N 59°40' E 028°24'0 0.0
2016-Dec-03 03:33N 59°40' E 028°24'0 0.0
2016-Dec-03 02:24N 59°40' E 028°24'0 0.0
2016-Dec-03 01:27N 59°40' E 028°24'0 0.0
2016-Dec-03 00:27N 59°40' E 028°24'0 0.0
2016-Dec-02 23:27N 59°40' E 028°24'0 0.0
2016-Dec-02 22:27N 59°40' E 028°24'0 0.0
2016-Dec-02 21:30N 59°40' E 028°24'0 0.2
2016-Dec-02 20:33N 59°41' E 028°24'9 8.4
2016-Dec-02 19:32N 59°49' E 028°25'1211.8
2016-Dec-02 18:33N 59°60' E 028°35'1111.0
2016-Dec-02 17:33N 60°06' E 028°17'1212.5
2016-Dec-02 16:33N 60°10' E 027°53'1212.5
2016-Dec-02 15:33N 60°06' E 027°30'1312.8
2016-Dec-02 14:33N 59°59' E 027°08'1312.6
2016-Dec-02 13:34N 59°59' E 026°43'1414.0
2016-Dec-02 12:33N 59°56' E 026°16'6615.5
2016-Dec-02 08:21N 59°40' E 024°09'1215.4
2016-Dec-02 07:33N 59°36' E 023°47'1615.4
2016-Dec-02 06:32N 59°31' E 023°17'34016.2
2016-Dec-01 09:32N 55°40' E 015°33'1717.2
2016-Dec-01 08:33N 55°31' E 015°07'1717.0
2016-Dec-01 07:34N 55°23' E 014°41'1716.9
2016-Dec-01 06:34N 55°10' E 014°22'1716.8
2016-Dec-01 05:33N 54°59' E 014°01'1817.7
2016-Dec-01 04:33N 54°53' E 013°31'3817.4
2016-Dec-01 02:21N 54°40' E 012°29'1316.6
2016-Dec-01 01:33N 54°29' E 012°15'1616.2
2016-Dec-01 00:33N 54°24' E 011°49'1818.3
2016-Nov-30 23:34N 54°32' E 011°21'1818.2
2016-Nov-30 22:34N 54°41' E 010°53'1616.1
2016-Nov-30 21:34N 54°57' E 010°57'1615.8
2016-Nov-30 20:34N 55°12' E 011°06'4615.2
2016-Nov-30 17:32N 55°58' E 011°00'1715.7
2016-Nov-30 16:27N 56°12' E 011°18'5614.5
2016-Nov-30 12:33N 57°07' E 011°38'1716.6
2016-Nov-30 11:33N 57°23' E 011°27'1616.1
2016-Nov-30 10:33N 57°35' E 011°08'1616.0
2016-Nov-30 09:33N 57°46' E 010°46'1717.1
2016-Nov-30 08:33N 57°47' E 010°14'17814.8
2016-Nov-29 20:33N 55°31' E 006°46'1414.2
2016-Nov-29 19:33N 55°17' E 006°43'1514.9
2016-Nov-29 18:33N 55°02' E 006°47'1515.1
2016-Nov-29 17:33N 54°47' E 006°53'1815.6
2016-Nov-29 16:24N 54°32' E 007°10'4716.5
2016-Nov-29 13:33N 54°01' E 008°09'1413.7
2016-Nov-29 12:34N 53°58' E 008°32'1312.7
2016-Nov-29 11:33N 53°50' E 008°49'1212.3
2016-Nov-29 10:34N 53°53' E 009°09'10 9.7
2016-Nov-29 09:33N 53°47' E 009°23'1514.8
2016-Nov-29 08:33N 53°35' E 009°37'1110.6
2016-Nov-29 07:33N 53°32' E 009°54'0 0.2
2016-Nov-29 06:33N 53°32' E 009°55'0 0.0
2016-Nov-29 05:33N 53°32' E 009°55'0 0.0
2016-Nov-29 04:33N 53°32' E 009°55'0 0.0
2016-Nov-29 03:33N 53°32' E 009°55'0 0.0
2016-Nov-29 02:33N 53°32' E 009°55'0 0.0
2016-Nov-29 01:33N 53°32' E 009°55'0 0.0
2016-Nov-29 00:33N 53°32' E 009°55'0 0.0
2016-Nov-28 23:33N 53°32' E 009°55'0 0.0
2016-Nov-28 22:33N 53°32' E 009°55'0 0.0
2016-Nov-28 21:33N 53°32' E 009°55'0 0.0
2016-Nov-28 20:33N 53°32' E 009°55'0 0.0
2016-Nov-28 19:33N 53°32' E 009°55'0 0.0
2016-Nov-28 18:33N 53°32' E 009°55'0 0.0
2016-Nov-28 17:33N 53°32' E 009°55'0 0.0
2016-Nov-28 16:33N 53°32' E 009°55'0 0.0
2016-Nov-28 15:33N 53°32' E 009°55'0 0.0
2016-Nov-28 14:33N 53°32' E 009°55'0 0.0
2016-Nov-28 13:30N 53°32' E 009°55'5 5.6
2016-Nov-28 12:33N 53°34' E 009°46'1110.8
2016-Nov-28 11:33N 53°40' E 009°31'1413.8
2016-Nov-28 10:34N 53°51' E 009°19'1212.0
2016-Nov-28 09:33N 53°51' E 008°58'1615.8
2016-Nov-28 08:34N 53°58' E 008°34'1414.1
2016-Nov-28 07:33N 53°60' E 008°10'4 2.9
2016-Nov-28 06:06N 54°03' E 008°06'0 0.0
2016-Nov-28 05:24N 54°03' E 008°06'0 0.0
2016-Nov-28 04:33N 54°03' E 008°06'0 0.0
2016-Nov-28 02:27N 54°03' E 008°06'0 0.0
2016-Nov-28 01:27N 54°03' E 008°06'0 0.0
2016-Nov-27 23:15N 54°03' E 008°06'0 0.0
2016-Nov-27 22:24N 54°03' E 008°06'0 0.1
2016-Nov-27 21:27N 54°03' E 008°06'0 0.0
2016-Nov-27 18:12N 54°03' E 008°06'0 0.1
2016-Nov-27 17:30N 54°03' E 008°06'0 0.0
2016-Nov-27 16:09N 54°03' E 008°06'0 0.1
2016-Nov-27 15:27N 54°03' E 008°06'0 0.0
2016-Nov-27 14:33N 54°03' E 008°06'0 0.0
2016-Nov-27 13:15N 54°03' E 008°06'0 0.0
2016-Nov-27 12:33N 54°03' E 008°06'0 0.1
2016-Nov-27 11:30N 54°03' E 008°06'0 0.1
2016-Nov-27 10:30N 54°03' E 008°06'0 0.0
2016-Nov-27 09:33N 54°03' E 008°06'0 0.0
2016-Nov-27 08:30N 54°03' E 008°06'0 0.0
2016-Nov-27 07:30N 54°03' E 008°06'0 0.0
2016-Nov-27 06:21N 54°03' E 008°06'0 0.1
2016-Nov-27 05:09N 54°03' E 008°06'0 0.0
2016-Nov-27 04:33N 54°03' E 008°06'0 0.0
2016-Nov-27 03:30N 54°03' E 008°06'0 0.0
2016-Nov-27 02:33N 54°03' E 008°06'0 0.0
2016-Nov-27 01:27N 54°03' E 008°06'0 0.0
2016-Nov-27 00:33N 54°03' E 008°06'0 0.0
2016-Nov-26 23:32N 54°03' E 008°06'0 0.0
2016-Nov-26 22:32N 54°03' E 008°06'0 0.1
2016-Nov-26 21:32N 54°03' E 008°06'0 0.0
2016-Nov-26 17:05N 54°03' E 008°06'0 0.0
2016-Nov-26 16:29N 54°03' E 008°06'0 0.0
2016-Nov-26 15:33N 54°03' E 008°06'0 0.0
2016-Nov-26 14:18N 54°03' E 008°06'0 0.1
2016-Nov-26 13:33N 54°03' E 008°06'0 0.1
2016-Nov-26 12:33N 54°03' E 008°06'0 0.1
2016-Nov-26 11:30N 54°03' E 008°06'0 0.1
2016-Nov-26 10:33N 54°03' E 008°06'0 0.0
2016-Nov-26 09:24N 54°03' E 008°06'0 0.0
2016-Nov-26 08:30N 54°03' E 008°06'0 0.0
2016-Nov-26 07:15N 54°03' E 008°06'0 0.0
2016-Nov-26 06:33N 54°03' E 008°06'0 0.0
2016-Nov-26 04:24N 54°03' E 008°06'0 0.1
2016-Nov-26 03:27N 54°03' E 008°06'0 0.1
2016-Nov-26 02:26N 54°03' E 008°06'0 0.0
2016-Nov-26 01:29N 54°03' E 008°06'  

Dump ship's entire track history